createdAt,value
2023-03-23T15:58:15.258Z,18.20
2023-03-23T16:00:43.811Z,18.20
2023-03-23T16:03:18.147Z,18.10
2023-03-23T16:05:45.568Z,18.10
2023-03-23T16:08:12.892Z,18.10
2023-03-23T16:10:39.778Z,18.00
2023-03-23T16:13:07.210Z,18.10
2023-03-23T16:15:34.247Z,18.00
2023-03-23T16:18:01.280Z,18.00
2023-03-23T16:20:29.819Z,18.00
2023-03-23T16:22:57.529Z,18.00
2023-03-23T16:25:24.685Z,18.00
2023-03-23T16:27:52.793Z,17.90
2023-03-23T16:30:26.196Z,17.90
2023-03-23T16:32:56.138Z,17.90
2023-03-23T16:35:24.927Z,17.80
2023-03-23T16:38:07.440Z,17.90
2023-03-23T16:40:39.087Z,17.80
2023-03-23T16:43:08.909Z,17.80
2023-03-23T16:45:37.360Z,17.80
2023-03-23T16:48:05.460Z,17.80
2023-03-23T16:50:36.619Z,17.80
2023-03-23T16:53:04.775Z,17.80
2023-03-23T16:55:32.523Z,17.80
2023-03-23T16:58:12.859Z,17.70
2023-03-23T17:00:45.251Z,17.70
2023-03-23T17:03:13.408Z,17.70
2023-03-23T17:05:40.946Z,17.70
2023-03-23T17:08:08.084Z,17.70
2023-03-23T17:10:37.584Z,17.70
2023-03-23T17:13:04.473Z,17.60
2023-03-23T17:15:31.461Z,17.60
2023-03-23T17:17:58.394Z,17.60
2023-03-23T17:20:25.794Z,17.60
2023-03-23T17:22:52.737Z,17.50
2023-03-23T17:25:19.863Z,17.60
2023-03-23T17:27:46.857Z,17.50
2023-03-23T17:30:14.076Z,17.50
2023-03-23T17:32:41.041Z,17.50
2023-03-23T17:35:08.328Z,17.50
2023-03-23T17:37:37.782Z,17.40
2023-03-23T17:40:08.453Z,17.50
2023-03-23T17:42:35.531Z,17.40
2023-03-23T17:45:04.854Z,17.40
2023-03-23T17:47:32.037Z,17.40
2023-03-23T17:49:58.933Z,17.40
2023-03-23T17:52:26.190Z,17.30
2023-03-23T17:54:54.087Z,17.30
2023-03-23T17:57:21.161Z,17.30
2023-03-23T17:59:48.146Z,17.30
2023-03-23T18:02:15.434Z,17.30
2023-03-23T18:04:42.860Z,17.30
2023-03-23T18:07:09.865Z,17.30
2023-03-23T18:09:37.081Z,17.30
2023-03-23T18:12:04.142Z,17.30
2023-03-23T18:14:31.151Z,17.30
2023-03-23T18:16:58.080Z,17.30
2023-03-23T18:19:25.135Z,17.30
2023-03-23T18:21:52.098Z,17.30
2023-03-23T18:24:20.688Z,17.30
2023-03-23T18:26:47.736Z,17.30
2023-03-23T18:29:15.188Z,17.30
2023-03-23T18:31:44.314Z,17.30
2023-03-23T18:34:11.569Z,17.30
2023-03-23T18:36:38.517Z,17.30
2023-03-23T18:39:06.362Z,17.30
2023-03-23T18:41:33.622Z,17.30
2023-03-23T18:44:00.727Z,17.30
2023-03-23T18:46:27.796Z,17.30
2023-03-23T18:48:55.134Z,17.30
2023-03-23T18:51:28.228Z,17.20
2023-03-23T18:53:58.381Z,17.20
2023-03-23T18:56:31.854Z,17.20
2023-03-23T18:58:59.097Z,17.20
2023-03-23T19:01:26.526Z,17.20
2023-03-23T19:03:53.554Z,17.20
2023-03-23T19:06:24.735Z,17.10
2023-03-23T19:08:52.371Z,17.10
2023-03-23T19:11:20.203Z,17.00
2023-03-23T19:14:00.525Z,17.00
2023-03-23T19:16:31.620Z,17.00
2023-03-23T19:18:59.960Z,16.90
2023-03-23T19:21:37.673Z,16.80
2023-03-23T19:24:05.737Z,16.80
2023-03-23T19:26:41.884Z,16.80
2023-03-23T19:31:46.782Z,16.80
2023-03-23T19:34:15.445Z,16.80
2023-03-23T19:36:50.310Z,16.80
2023-03-23T19:39:21.787Z,16.90
2023-03-23T19:41:52.004Z,16.90
2023-03-23T19:44:19.052Z,16.90
2023-03-23T19:46:48.301Z,16.90
2023-03-23T19:49:15.601Z,16.90
2023-03-23T19:51:42.574Z,16.90
2023-03-23T19:54:09.769Z,16.90
2023-03-23T19:56:37.099Z,16.90
2023-03-23T19:59:05.179Z,16.90
2023-03-23T20:01:32.820Z,16.90
2023-03-23T20:04:01.856Z,17.00
2023-03-23T20:06:29.995Z,16.90
2023-03-23T20:09:00.206Z,17.00
2023-03-23T20:11:28.408Z,17.00
2023-03-23T20:13:56.246Z,17.00
2023-03-23T20:16:23.865Z,17.00
2023-03-23T20:18:50.957Z,16.90
2023-03-23T20:21:27.510Z,16.90
2023-03-23T20:23:57.273Z,16.90
2023-03-23T20:26:38.173Z,16.90
2023-03-23T20:29:06.209Z,16.80
2023-03-23T20:31:36.964Z,16.80
2023-03-23T20:34:07.052Z,16.70
2023-03-23T20:36:37.441Z,16.70
2023-03-23T20:39:06.382Z,16.60
2023-03-23T20:41:36.054Z,16.60
2023-03-23T20:44:04.280Z,16.60
2023-03-23T20:46:31.718Z,16.50
2023-03-23T20:48:58.621Z,16.50
2023-03-23T20:51:25.749Z,16.50
2023-03-23T20:53:53.383Z,16.50
2023-03-23T20:56:20.407Z,16.40
2023-03-23T20:58:47.802Z,16.30
2023-03-23T21:01:15.428Z,16.30
2023-03-23T21:03:44.197Z,16.40
2023-03-23T21:06:11.946Z,16.30
2023-03-23T21:08:40.859Z,16.30
2023-03-23T21:11:10.004Z,16.20
2023-03-23T21:13:37.255Z,16.20
2023-03-23T21:16:05.143Z,16.10
2023-03-23T21:18:32.254Z,16.10
2023-03-23T21:21:00.456Z,16.10
2023-03-23T21:23:29.677Z,16.10
2023-03-23T21:26:02.347Z,16.00
2023-03-23T21:28:29.633Z,16.00
2023-03-23T21:31:02.167Z,15.90
2023-03-23T21:33:29.361Z,15.90
2023-03-23T21:35:56.384Z,15.90
2023-03-23T21:38:28.204Z,15.90
2023-03-23T21:41:00.973Z,15.90
2023-03-23T21:43:29.032Z,15.90
2023-03-23T21:49:30.845Z,16.00
2023-03-23T21:52:11.356Z,16.00
2023-03-23T21:54:38.417Z,15.90
2023-03-23T21:57:05.407Z,15.90
2023-03-23T21:59:34.087Z,15.90
2023-03-23T22:02:01.997Z,15.90
2023-03-23T22:04:29.385Z,15.80
2023-03-23T22:06:56.819Z,15.90
2023-03-23T22:09:23.821Z,15.90
2023-03-23T22:11:50.992Z,15.90
2023-03-23T22:14:17.855Z,15.90
2023-03-23T22:16:44.781Z,15.90
2023-03-23T22:19:11.849Z,15.90
2023-03-23T22:21:39.182Z,15.90
2023-03-23T22:24:06.936Z,15.90
2023-03-23T22:26:34.524Z,15.90
2023-03-23T22:29:02.713Z,15.90
2023-03-23T22:31:33.997Z,15.80
2023-03-23T22:34:02.109Z,15.90
2023-03-23T22:36:30.569Z,15.90
2023-03-23T22:38:57.631Z,15.90
2023-03-23T22:41:28.000Z,15.90
2023-03-23T22:43:55.380Z,15.90
2023-03-23T22:46:23.194Z,15.90
2023-03-23T22:48:50.409Z,15.90
2023-03-23T22:51:18.926Z,15.90
2023-03-23T22:53:46.580Z,15.90
2023-03-23T22:56:13.783Z,15.80
2023-03-23T22:58:42.429Z,15.80
2023-03-23T23:01:13.487Z,15.80
2023-03-23T23:03:40.989Z,15.80
2023-03-23T23:06:08.384Z,15.80
2023-03-23T23:08:35.604Z,15.70
2023-03-23T23:11:03.570Z,15.80
2023-03-23T23:13:32.681Z,15.70
2023-03-23T23:16:02.044Z,15.80
2023-03-23T23:18:30.869Z,15.90
2023-03-23T23:21:00.614Z,16.00
2023-03-23T23:23:28.731Z,16.10
2023-03-23T23:25:56.474Z,16.10
2023-03-23T23:28:24.249Z,16.20
2023-03-23T23:30:51.650Z,16.20
2023-03-23T23:33:19.418Z,16.20
2023-03-23T23:35:47.879Z,16.20
2023-03-23T23:38:16.649Z,16.30
2023-03-23T23:40:45.420Z,16.40
2023-03-23T23:43:15.024Z,16.50
2023-03-23T23:45:42.326Z,16.60
2023-03-23T23:48:09.589Z,16.60
2023-03-23T23:50:36.624Z,16.60
2023-03-23T23:53:04.894Z,16.70
2023-03-23T23:55:32.315Z,16.70
2023-03-23T23:57:59.434Z,16.60
